LIPX

Verona Villafranca Airport

Verona, Italy
TAF LIPX 241100Z 2412/2421 04005KT CAVOK TEMPO 2412/2416 10015KT
Issued Valid From Valid To
Sep-24 @ 11:00 UTC
(3 hours ago)
Sep-24 @ 12:00 UTC
(2 hours ago)
Sep-24 @ 21:00 UTC
(in 7 hours)
Sep-24 @ 12:00 to Sep-24 @ 21:00
TAF LIPX 241100Z 2412/2421 04005KT CAVOK
Wind Visibility Clouds Conditions
40° at 5 knots 10,000+ meters
  • No significant clouds
Temporary Sep-24 @ 12:00 to Sep-24 @ 16:00
TEMPO 2412/2416 10015KT
Wind
100° at 15 knots
TAF LIPX 241100Z 2412/2421 04005KT CAVOK TEMPO 2412/2416 10015KT
Issued Sep-24 @ 11:00 UTC
(3 hours ago)
Valid From Sep-24 @ 12:00 UTC
(2 hours ago)
Valid To Sep-24 @ 21:00 UTC
(in 7 hours)
Sep-24 @ 12:00 - Sep-24 @ 21:00
Wind Visibility
40° at 5 knots 10,000+ meters
Clouds
  • No significant clouds
Conditions
Temporary Sep-24 @ 12:00 - Sep-24 @ 16:00
Wind
100° at 15 knots